Time;durP1;ratioP1;P1;durP2;ratioP2;P2;SDS_P1;SDS_P2;PMS_P1;PMS_P2;Temp;Humidity;BMP_temperature;BMP_pressure;BME280_temperature;BME280_humidity;BME280_pressure;Samples;Min_cycle;Max_cycle;Signal;HPM_P1;HPM_P2
2024/03/12 00:06:30;;;;;;;80.50;37.10;;;7.60;99.90;;;;;;20655536;28;20395;-48
2024/03/12 00:16:31;;;;;;;83.50;39.78;;;7.60;99.90;;;;;;20658752;28;20551;-48
2024/03/12 00:26:32;;;;;;;70.93;35.87;;;7.60;99.90;;;;;;20650999;28;20568;-48
2024/03/12 00:36:33;;;;;;;85.18;38.65;;;7.60;99.90;;;;;;20655334;28;20552;-48
2024/03/12 00:46:35;;;;;;;75.33;37.77;;;7.60;99.90;;;;;;20664141;28;20049;-48
2024/03/12 00:56:36;;;;;;;82.53;38.63;;;7.60;99.90;;;;;;20663958;28;20456;-48
2024/03/12 01:06:37;;;;;;;74.43;36.33;;;7.70;99.90;;;;;;20658086;28;20058;-48
2024/03/12 01:16:38;;;;;;;78.00;36.70;;;7.70;99.90;;;;;;20649482;28;20500;-48
2024/03/12 01:26:41;;;;;;;81.90;36.97;;;7.70;99.90;;;;;;20565312;28;20051;-48
2024/03/12 01:36:42;;;;;;;77.80;34.42;;;7.70;99.90;;;;;;20572079;28;20042;-48
2024/03/12 01:46:43;;;;;;;83.60;34.88;;;7.80;99.90;;;;;;20564114;28;20046;-48
2024/03/12 01:56:43;;;;;;;91.30;36.03;;;7.70;99.90;;;;;;20569364;28;20716;-48
2024/03/12 02:06:44;;;;;;;78.37;36.47;;;7.70;99.90;;;;;;20577635;28;20051;-49
2024/03/12 02:16:46;;;;;;;78.33;33.57;;;7.70;99.90;;;;;;20589765;28;20485;-48
2024/03/12 02:26:46;;;;;;;76.03;33.22;;;7.70;99.90;;;;;;20668532;28;20468;-49
2024/03/12 02:36:47;;;;;;;67.20;30.87;;;7.80;99.90;;;;;;20667941;28;20185;-48
2024/03/12 02:46:52;;;;;;;80.28;31.20;;;7.80;99.90;;;;;;20663367;28;20568;-48
2024/03/12 02:56:56;;;;;;;84.32;33.50;;;7.70;99.90;;;;;;20663383;28;20048;-48
2024/03/12 03:07:00;;;;;;;83.32;34.28;;;7.80;99.90;;;;;;20666811;28;20042;-48
2024/03/12 03:17:00;;;;;;;79.63;32.97;;;7.70;99.90;;;;;;20654733;28;20042;-48
2024/03/12 03:27:01;;;;;;;70.07;29.88;;;7.70;99.90;;;;;;20654359;28;20133;-48
2024/03/12 03:37:02;;;;;;;77.20;30.90;;;7.70;99.90;;;;;;20663010;28;20133;-48
2024/03/12 03:47:04;;;;;;;71.40;29.93;;;7.60;99.90;;;;;;20660474;28;20471;-48
2024/03/12 03:57:04;;;;;;;69.97;26.83;;;7.60;99.90;;;;;;20662699;28;20580;-48
2024/03/12 04:07:05;;;;;;;64.78;26.27;;;7.60;99.90;;;;;;20659153;28;20439;-48
2024/03/12 04:17:06;;;;;;;66.57;26.23;;;7.60;99.90;;;;;;20657300;28;20100;-48
2024/03/12 04:27:07;;;;;;;64.00;25.50;;;7.60;99.90;;;;;;20645766;28;20049;-48
2024/03/12 04:37:07;;;;;;;60.35;24.52;;;7.60;99.90;;;;;;20656135;28;20283;-48
2024/03/12 04:47:09;;;;;;;58.10;22.73;;;7.60;99.90;;;;;;20657701;28;20179;-48
2024/03/12 04:57:10;;;;;;;55.33;22.70;;;7.50;99.90;;;;;;20656526;28;20461;-48
2024/03/12 05:07:11;;;;;;;53.75;21.65;;;7.50;99.90;;;;;;20654176;28;20045;-48
2024/03/12 05:17:12;;;;;;;53.10;23.05;;;7.50;99.90;;;;;;20653661;28;20440;-48
2024/03/12 05:27:21;;;;;;;51.07;22.30;;;7.50;99.90;;;;;;20643818;28;20046;-48
2024/03/12 05:37:41;;;;;;;58.70;22.77;;;7.40;99.90;;;;;;20639167;28;20030;-48
2024/03/12 05:58:04;;;;;;;51.65;20.98;;;7.40;99.90;;;;;;20654100;28;20406;-48
2024/03/12 06:08:05;;;;;;;48.60;20.40;;;7.40;99.90;;;;;;20648723;28;20078;-48
2024/03/12 06:18:07;;;;;;;50.38;19.85;;;7.50;99.90;;;;;;20658732;28;20056;-48
2024/03/12 06:28:07;;;;;;;41.83;18.40;;;7.40;99.90;;;;;;20648396;28;20391;-48
2024/03/12 06:38:08;;;;;;;42.92;19.70;;;7.40;99.90;;;;;;20659633;28;20033;-48
2024/03/12 06:48:10;;;;;;;49.55;20.73;;;7.40;99.90;;;;;;20656624;28;20057;-48
2024/03/12 06:58:18;;;;;;;47.50;19.58;;;7.40;99.90;;;;;;20654450;28;20034;-48
2024/03/12 07:08:21;;;;;;;47.03;19.60;;;7.40;99.90;;;;;;20659408;28;20521;-48
2024/03/12 07:18:23;;;;;;;36.28;17.27;;;7.40;99.90;;;;;;20675509;28;20522;-53
2024/03/12 07:28:26;;;;;;;40.38;18.77;;;7.40;99.90;;;;;;20664484;28;20412;-49
2024/03/12 07:38:27;;;;;;;41.53;16.95;;;7.50;99.90;;;;;;20675869;28;20046;-49
2024/03/12 07:48:28;;;;;;;35.27;15.80;;;7.50;99.90;;;;;;20673902;28;20044;-47
2024/03/12 07:58:29;;;;;;;32.65;15.55;;;7.50;99.90;;;;;;20674534;28;20243;-47
2024/03/12 08:08:30;;;;;;;35.22;15.23;;;7.50;99.90;;;;;;20655434;28;20181;-46
2024/03/12 08:18:31;;;;;;;31.48;14.02;;;7.60;99.90;;;;;;20672556;28;20075;-47
2024/03/12 08:28:31;;;;;;;29.07;13.47;;;7.70;99.90;;;;;;20669318;28;20098;-47
2024/03/12 08:38:33;;;;;;;37.73;15.43;;;7.60;99.90;;;;;;20664684;28;20448;-47
2024/03/12 08:48:34;;;;;;;37.80;16.48;;;7.70;99.90;;;;;;20667619;28;20587;-47
2024/03/12 08:58:35;;;;;;;38.70;16.42;;;7.70;99.90;;;;;;20666658;28;20065;-47
2024/03/12 09:08:39;;;;;;;36.20;17.60;;;7.70;99.90;;;;;;20646261;28;20566;-46
2024/03/12 09:18:43;;;;;;;37.47;16.83;;;7.80;99.90;;;;;;20661040;28;20041;-46
2024/03/12 09:28:44;;;;;;;34.20;17.00;;;7.90;99.90;;;;;;20659768;28;20042;-49
2024/03/12 09:38:46;;;;;;;36.10;17.33;;;8.00;99.90;;;;;;20621208;28;20506;-49
2024/03/12 09:48:51;;;;;;;40.10;19.00;;;8.00;99.90;;;;;;20660535;28;20053;-47
2024/03/12 09:58:52;;;;;;;36.88;18.02;;;8.30;99.90;;;;;;20657698;28;20042;-47
2024/03/12 10:08:59;;;;;;;39.58;19.35;;;8.50;99.90;;;;;;20661715;28;20101;-47
2024/03/12 10:19:09;;;;;;;36.40;19.00;;;8.60;99.90;;;;;;20650791;28;20046;-49
2024/03/12 10:29:16;;;;;;;32.35;18.15;;;8.70;99.90;;;;;;20668805;28;20383;-49
2024/03/12 10:39:29;;;;;;;;;;;8.70;74.90;;;;;;20655933;28;20038;-49
2024/03/12 10:49:30;;;;;;;31.30;16.73;;;8.80;52.10;;;;;;20657471;28;19918;-49
2024/03/12 10:59:34;;;;;;;34.42;18.63;;;8.80;49.20;;;;;;20671236;28;20045;-49
2024/03/12 11:09:36;;;;;;;38.28;20.17;;;9.00;52.10;;;;;;20671340;28;20044;-49
2024/03/12 11:19:37;;;;;;;38.17;19.33;;;9.70;19.10;;;;;;20672198;28;20046;-49
2024/03/12 11:30:04;;;;;;;36.13;18.53;;;9.90;9.30;;;;;;20680949;28;20046;-49
2024/03/12 11:40:23;;;;;;;32.00;17.48;;;9.70;1.00;;;;;;20670362;28;20457;-49
2024/03/12 11:50:33;;;;;;;33.42;17.63;;;10.50;1.00;;;;;;20674797;28;20107;-49
2024/03/12 12:00:35;;;;;;;36.20;20.00;;;11.00;1.00;;;;;;20670501;28;20077;-49
2024/03/12 12:10:35;;;;;;;38.60;19.60;;;11.20;1.00;;;;;;20670514;28;20037;-49
2024/03/12 12:20:37;;;;;;;33.20;18.58;;;10.90;1.00;;;;;;20671622;28;20108;-49
2024/03/12 12:30:38;;;;;;;32.78;19.17;;;11.10;1.00;;;;;;20675253;28;20045;-49
2024/03/12 12:40:40;;;;;;;35.00;19.10;;;10.90;1.00;;;;;;20674234;28;20044;-49
2024/03/12 12:50:41;;;;;;;35.47;18.63;;;11.60;1.00;;;;;;20671982;28;20069;-49
2024/03/12 13:00:43;;;;;;;40.67;22.08;;;11.50;1.00;;;;;;20672751;28;20034;-49
2024/03/12 13:11:05;;;;;;;38.28;22.08;;;11.90;1.00;;;;;;20671315;28;20038;-49
2024/03/12 13:21:07;;;;;;;39.25;24.20;;;13.10;1.00;;;;;;20667901;28;20328;-49
2024/03/12 13:31:08;;;;;;;42.67;25.20;;;13.20;1.00;;;;;;20668308;28;20050;-49
2024/03/12 13:41:10;;;;;;;49.72;28.73;;;12.70;1.00;;;;;;20668396;28;20247;-49
2024/03/12 13:51:10;;;;;;;50.40;30.30;;;11.70;1.00;;;;;;20655681;28;20053;-49
2024/03/12 14:01:12;;;;;;;60.20;34.30;;;11.30;1.00;;;;;;20663301;28;20038;-49
2024/03/12 14:11:13;;;;;;;56.28;31.98;;;11.20;1.00;;;;;;20667644;28;20048;-49
2024/03/12 14:21:13;;;;;;;49.77;29.10;;;11.30;1.00;;;;;;20664328;28;20054;-49
2024/03/12 14:31:14;;;;;;;53.20;30.48;;;11.60;1.00;;;;;;20668784;28;20449;-49
2024/03/12 14:41:15;;;;;;;53.35;30.15;;;11.60;1.00;;;;;;20666671;28;20461;-49
2024/03/12 14:51:16;;;;;;;53.83;31.40;;;11.60;1.00;;;;;;20663703;28;20045;-49
2024/03/12 15:01:16;;;;;;;49.73;29.70;;;11.50;1.00;;;;;;20665971;28;20037;-49
2024/03/12 15:11:17;;;;;;;55.50;30.42;;;11.30;1.00;;;;;;20666906;28;20472;-49
2024/03/12 15:21:17;;;;;;;44.63;26.47;;;11.20;1.00;;;;;;20675940;28;20038;-49
2024/03/12 15:31:18;;;;;;;52.20;28.47;;;11.00;1.00;;;;;;20662139;28;20379;-49
2024/03/12 15:41:19;;;;;;;48.67;28.17;;;10.90;1.00;;;;;;20670951;28;20042;-49
2024/03/12 15:51:20;;;;;;;50.47;27.25;;;10.70;1.00;;;;;;20673463;28;20509;-49
2024/03/12 16:01:22;;;;;;;55.75;29.63;;;10.70;1.00;;;;;;20672903;28;20105;-49
2024/03/12 16:11:22;;;;;;;54.60;33.05;;;10.50;1.00;;;;;;20666991;28;20057;-49
2024/03/12 16:21:23;;;;;;;56.20;29.63;;;10.40;6.50;;;;;;20660282;28;20044;-49
2024/03/12 16:31:23;;;;;;;59.38;30.20;;;10.20;27.20;;;;;;20664438;28;20065;-49
2024/03/12 16:41:26;;;;;;;51.60;27.33;;;10.00;45.80;;;;;;20655374;28;20113;-49
2024/03/12 16:51:26;;;;;;;46.38;27.27;;;10.00;60.20;;;;;;20663691;28;20929;-49
2024/03/12 17:01:27;;;;;;;47.83;25.93;;;9.90;69.10;;;;;;20664101;28;20393;-49
2024/03/12 17:11:28;;;;;;;48.83;25.63;;;10.00;63.30;;;;;;20658618;28;20471;-49
2024/03/12 17:21:31;;;;;;;41.47;22.83;;;10.00;55.30;;;;;;20649988;28;20042;-49
2024/03/12 17:31:32;;;;;;;58.25;29.27;;;10.10;54.10;;;;;;20656670;28;20050;-49
2024/03/12 17:41:33;;;;;;;61.30;30.08;;;9.90;66.60;;;;;;20651209;28;20071;-49
2024/03/12 17:51:35;;;;;;;40.78;21.63;;;9.70;98.60;;;;;;20661267;28;20069;-49
2024/03/12 18:01:36;;;;;;;31.48;17.55;;;9.70;99.90;;;;;;20664501;28;20486;-49
2024/03/12 18:11:38;;;;;;;29.42;16.60;;;9.70;99.90;;;;;;20665203;28;20397;-49
2024/03/12 18:21:39;;;;;;;31.90;16.70;;;9.60;99.90;;;;;;20664058;28;20557;-46
2024/03/12 18:31:40;;;;;;;34.17;18.90;;;9.50;99.90;;;;;;20668543;28;20529;-47
2024/03/12 18:41:40;;;;;;;42.25;21.77;;;9.50;99.90;;;;;;20658150;28;20464;-47
2024/03/12 18:51:44;;;;;;;41.88;21.80;;;9.40;99.90;;;;;;20672891;28;20041;-48
2024/03/12 19:01:50;;;;;;;42.58;22.27;;;9.40;99.90;;;;;;20674675;28;20159;-46
2024/03/12 19:11:51;;;;;;;39.72;20.77;;;9.30;99.90;;;;;;20669605;28;20175;-46
2024/03/12 19:21:52;;;;;;;36.58;18.15;;;9.30;99.90;;;;;;20667637;28;20054;-47
2024/03/12 19:31:54;;;;;;;36.42;18.70;;;9.20;99.90;;;;;;20669870;28;20046;-47
2024/03/12 19:41:55;;;;;;;31.05;16.58;;;9.20;99.90;;;;;;20657458;28;20123;-47
2024/03/12 19:51:56;;;;;;;30.40;17.20;;;9.10;99.90;;;;;;20662423;28;20046;-47
2024/03/12 20:01:57;;;;;;;36.03;18.35;;;9.10;99.90;;;;;;20665286;28;20305;-52
2024/03/12 20:11:57;;;;;;;38.67;20.00;;;9.00;99.90;;;;;;20669767;28;20042;-48
2024/03/12 20:21:58;;;;;;;37.90;20.70;;;9.00;99.90;;;;;;20668386;28;20457;-47
2024/03/12 20:32:00;;;;;;;37.63;20.85;;;9.10;99.90;;;;;;20671536;28;20053;-47
2024/03/12 20:42:01;;;;;;;35.95;19.75;;;9.10;99.90;;;;;;20666785;28;20548;-47
2024/03/12 20:52:04;;;;;;;34.83;19.08;;;9.10;99.90;;;;;;20666816;28;20486;-47
2024/03/12 21:02:08;;;;;;;35.70;19.15;;;9.10;99.90;;;;;;20659736;28;20327;-47
2024/03/12 21:12:09;;;;;;;39.20;19.98;;;9.10;99.90;;;;;;20667873;28;20057;-48
2024/03/12 21:22:09;;;;;;;37.88;19.42;;;9.10;99.90;;;;;;20665274;28;20046;-50
2024/03/12 21:32:10;;;;;;;38.75;20.88;;;9.00;99.90;;;;;;20668884;28;20054;-47
2024/03/12 21:42:12;;;;;;;34.67;19.27;;;9.10;99.90;;;;;;20661927;28;20109;-47
2024/03/12 21:52:15;;;;;;;34.67;19.45;;;9.10;99.90;;;;;;20655978;28;20539;-47
2024/03/12 22:02:16;;;;;;;36.00;19.17;;;9.10;99.90;;;;;;20660391;28;20053;-47
2024/03/12 22:12:17;;;;;;;39.17;21.00;;;9.10;99.90;;;;;;20652391;28;20034;-47
2024/03/12 22:22:17;;;;;;;39.25;21.27;;;9.10;99.90;;;;;;20639604;28;433257;-47
2024/03/12 22:32:25;;;;;;;36.47;19.65;;;9.10;99.90;;;;;;20682626;28;20539;-47
2024/03/12 22:42:26;;;;;;;32.65;18.45;;;9.10;99.90;;;;;;20685485;28;20104;-47
2024/03/12 22:52:28;;;;;;;31.00;16.80;;;9.00;99.90;;;;;;20673921;28;20062;-47
2024/03/12 23:02:29;;;;;;;30.50;16.90;;;9.10;99.90;;;;;;20678710;28;20030;-47
2024/03/12 23:12:30;;;;;;;29.30;15.80;;;9.10;99.90;;;;;;20672105;28;20050;-48
2024/03/12 23:22:32;;;;;;;32.30;16.10;;;9.10;99.90;;;;;;20670985;28;20043;-47
2024/03/12 23:32:36;;;;;;;32.67;17.45;;;9.20;99.90;;;;;;20675987;28;20022;-48
2024/03/12 23:42:40;;;;;;;33.53;16.30;;;9.20;99.90;;;;;;20659505;28;20124;-47
2024/03/12 23:52:41;;;;;;;28.27;15.52;;;9.20;99.90;;;;;;20669245;28;20076;-48
